sensor_id;sensor_type;location;lat;lon;timestamp;P1;durP1;ratioP1;P2;durP2;ratioP2
21014;SDS011;19207;-23.482;-46.500;2022-08-21T00:01:16;14.27;;;3.78;;
21014;SDS011;19207;-23.482;-46.500;2022-08-21T00:04:06;10.25;;;3.28;;
21014;SDS011;19207;-23.482;-46.500;2022-08-21T00:06:52;14.40;;;2.87;;
21014;SDS011;19207;-23.482;-46.500;2022-08-21T00:09:39;11.75;;;3.78;;
21014;SDS011;19207;-23.482;-46.500;2022-08-21T00:12:26;9.25;;;2.70;;
21014;SDS011;19207;-23.482;-46.500;2022-08-21T00:15:15;10.73;;;2.83;;
21014;SDS011;19207;-23.482;-46.500;2022-08-21T00:18:04;8.10;;;2.60;;
21014;SDS011;19207;-23.482;-46.500;2022-08-21T00:20:51;10.05;;;3.17;;
21014;SDS011;19207;-23.482;-46.500;2022-08-21T00:23:37;17.62;;;3.33;;
21014;SDS011;19207;-23.482;-46.500;2022-08-21T00:26:24;14.00;;;3.20;;
21014;SDS011;19207;-23.482;-46.500;2022-08-21T00:29:11;14.32;;;3.47;;
21014;SDS011;19207;-23.482;-46.500;2022-08-21T00:31:58;17.90;;;3.70;;
21014;SDS011;19207;-23.482;-46.500;2022-08-21T00:34:45;8.68;;;3.45;;
21014;SDS011;19207;-23.482;-46.500;2022-08-21T00:37:32;16.75;;;3.72;;
21014;SDS011;19207;-23.482;-46.500;2022-08-21T00:40:22;11.07;;;3.42;;
21014;SDS011;19207;-23.482;-46.500;2022-08-21T00:43:09;14.82;;;3.60;;
21014;SDS011;19207;-23.482;-46.500;2022-08-21T00:45:56;10.43;;;3.90;;
21014;SDS011;19207;-23.482;-46.500;2022-08-21T00:48:43;15.63;;;4.00;;
21014;SDS011;19207;-23.482;-46.500;2022-08-21T00:51:35;14.60;;;3.92;;
21014;SDS011;19207;-23.482;-46.500;2022-08-21T00:54:24;14.50;;;4.28;;
21014;SDS011;19207;-23.482;-46.500;2022-08-21T00:57:16;15.55;;;4.82;;
21014;SDS011;19207;-23.482;-46.500;2022-08-21T01:00:07;12.35;;;4.70;;
21014;SDS011;19207;-23.482;-46.500;2022-08-21T01:02:55;11.48;;;3.92;;
21014;SDS011;19207;-23.482;-46.500;2022-08-21T01:05:42;13.40;;;3.90;;
21014;SDS011;19207;-23.482;-46.500;2022-08-21T01:08:29;17.30;;;5.12;;
21014;SDS011;19207;-23.482;-46.500;2022-08-21T01:11:15;15.60;;;5.15;;
21014;SDS011;19207;-23.482;-46.500;2022-08-21T01:14:03;18.75;;;4.90;;
21014;SDS011;19207;-23.482;-46.500;2022-08-21T01:16:50;16.80;;;5.28;;
21014;SDS011;19207;-23.482;-46.500;2022-08-21T01:19:38;13.15;;;4.80;;
21014;SDS011;19207;-23.482;-46.500;2022-08-21T01:22:25;16.90;;;4.68;;
21014;SDS011;19207;-23.482;-46.500;2022-08-21T01:25:13;16.02;;;5.07;;
21014;SDS011;19207;-23.482;-46.500;2022-08-21T01:28:03;12.65;;;4.50;;
21014;SDS011;19207;-23.482;-46.500;2022-08-21T01:30:52;17.25;;;4.28;;
21014;SDS011;19207;-23.482;-46.500;2022-08-21T01:33:39;14.05;;;4.20;;
21014;SDS011;19207;-23.482;-46.500;2022-08-21T01:36:26;13.25;;;4.40;;
21014;SDS011;19207;-23.482;-46.500;2022-08-21T01:39:13;17.70;;;4.75;;
21014;SDS011;19207;-23.482;-46.500;2022-08-21T01:41:59;14.85;;;5.47;;
21014;SDS011;19207;-23.482;-46.500;2022-08-21T01:44:47;16.40;;;5.28;;
21014;SDS011;19207;-23.482;-46.500;2022-08-21T01:47:34;12.07;;;4.87;;
21014;SDS011;19207;-23.482;-46.500;2022-08-21T01:50:21;14.32;;;4.78;;
21014;SDS011;19207;-23.482;-46.500;2022-08-21T01:53:10;12.05;;;4.30;;
21014;SDS011;19207;-23.482;-46.500;2022-08-21T01:55:56;15.40;;;4.25;;
21014;SDS011;19207;-23.482;-46.500;2022-08-21T01:58:44;10.25;;;4.40;;
21014;SDS011;19207;-23.482;-46.500;2022-08-21T02:01:31;12.57;;;4.43;;
21014;SDS011;19207;-23.482;-46.500;2022-08-21T02:04:18;14.48;;;4.72;;
21014;SDS011;19207;-23.482;-46.500;2022-08-21T02:07:05;13.32;;;4.20;;
21014;SDS011;19207;-23.482;-46.500;2022-08-21T02:09:52;13.65;;;4.47;;
21014;SDS011;19207;-23.482;-46.500;2022-08-21T02:12:39;12.18;;;3.70;;
21014;SDS011;19207;-23.482;-46.500;2022-08-21T02:15:26;9.88;;;3.25;;
21014;SDS011;19207;-23.482;-46.500;2022-08-21T02:18:13;9.57;;;3.50;;
21014;SDS011;19207;-23.482;-46.500;2022-08-21T02:21:00;15.20;;;3.95;;
21014;SDS011;19207;-23.482;-46.500;2022-08-21T02:23:46;13.68;;;3.97;;
21014;SDS011;19207;-23.482;-46.500;2022-08-21T02:26:33;13.05;;;3.90;;
21014;SDS011;19207;-23.482;-46.500;2022-08-21T02:29:19;12.18;;;3.72;;
21014;SDS011;19207;-23.482;-46.500;2022-08-21T02:32:06;13.38;;;5.43;;
21014;SDS011;19207;-23.482;-46.500;2022-08-21T02:34:53;15.10;;;5.22;;
21014;SDS011;19207;-23.482;-46.500;2022-08-21T02:37:47;12.07;;;5.32;;
21014;SDS011;19207;-23.482;-46.500;2022-08-21T02:40:35;9.50;;;4.95;;
21014;SDS011;19207;-23.482;-46.500;2022-08-21T02:43:22;16.58;;;5.65;;
21014;SDS011;19207;-23.482;-46.500;2022-08-21T02:46:11;20.17;;;5.30;;
21014;SDS011;19207;-23.482;-46.500;2022-08-21T02:48:57;14.38;;;4.30;;
21014;SDS011;19207;-23.482;-46.500;2022-08-21T02:51:43;9.30;;;3.83;;
21014;SDS011;19207;-23.482;-46.500;2022-08-21T02:54:30;9.63;;;3.25;;
21014;SDS011;19207;-23.482;-46.500;2022-08-21T02:57:17;15.88;;;4.15;;
21014;SDS011;19207;-23.482;-46.500;2022-08-21T03:00:04;10.75;;;3.72;;
21014;SDS011;19207;-23.482;-46.500;2022-08-21T03:02:52;9.63;;;3.22;;
21014;SDS011;19207;-23.482;-46.500;2022-08-21T03:05:41;9.35;;;2.92;;
21014;SDS011;19207;-23.482;-46.500;2022-08-21T03:08:28;11.63;;;3.40;;
21014;SDS011;19207;-23.482;-46.500;2022-08-21T03:11:15;12.15;;;3.10;;
21014;SDS011;19207;-23.482;-46.500;2022-08-21T03:14:02;13.13;;;3.40;;
21014;SDS011;19207;-23.482;-46.500;2022-08-21T03:16:50;10.27;;;2.72;;
21014;SDS011;19207;-23.482;-46.500;2022-08-21T03:19:37;12.98;;;3.10;;
21014;SDS011;19207;-23.482;-46.500;2022-08-21T03:22:25;7.12;;;2.87;;
21014;SDS011;19207;-23.482;-46.500;2022-08-21T03:25:11;8.25;;;2.97;;
21014;SDS011;19207;-23.482;-46.500;2022-08-21T03:27:58;10.88;;;3.50;;
21014;SDS011;19207;-23.482;-46.500;2022-08-21T03:30:45;14.77;;;3.00;;
21014;SDS011;19207;-23.482;-46.500;2022-08-21T03:33:32;9.27;;;2.67;;
21014;SDS011;19207;-23.482;-46.500;2022-08-21T03:36:19;5.85;;;2.60;;
21014;SDS011;19207;-23.482;-46.500;2022-08-21T03:39:05;9.25;;;3.25;;
21014;SDS011;19207;-23.482;-46.500;2022-08-21T03:41:51;6.50;;;2.65;;
21014;SDS011;19207;-23.482;-46.500;2022-08-21T03:44:39;6.80;;;2.72;;
21014;SDS011;19207;-23.482;-46.500;2022-08-21T03:47:26;13.60;;;3.45;;
21014;SDS011;19207;-23.482;-46.500;2022-08-21T03:50:13;11.00;;;3.20;;
21014;SDS011;19207;-23.482;-46.500;2022-08-21T03:53:00;6.65;;;2.90;;
21014;SDS011;19207;-23.482;-46.500;2022-08-21T03:55:48;7.00;;;2.70;;
21014;SDS011;19207;-23.482;-46.500;2022-08-21T03:58:35;10.18;;;3.58;;
21014;SDS011;19207;-23.482;-46.500;2022-08-21T04:01:23;6.05;;;3.35;;
21014;SDS011;19207;-23.482;-46.500;2022-08-21T04:04:10;9.00;;;3.95;;
21014;SDS011;19207;-23.482;-46.500;2022-08-21T04:06:56;12.10;;;3.87;;
21014;SDS011;19207;-23.482;-46.500;2022-08-21T04:09:43;16.58;;;4.22;;
21014;SDS011;19207;-23.482;-46.500;2022-08-21T04:12:30;8.13;;;3.58;;
21014;SDS011;19207;-23.482;-46.500;2022-08-21T04:15:16;13.13;;;3.92;;
21014;SDS011;19207;-23.482;-46.500;2022-08-21T04:18:03;11.32;;;3.83;;
21014;SDS011;19207;-23.482;-46.500;2022-08-21T04:20:50;16.45;;;3.60;;
21014;SDS011;19207;-23.482;-46.500;2022-08-21T04:23:37;11.88;;;3.40;;
21014;SDS011;19207;-23.482;-46.500;2022-08-21T04:26:24;6.12;;;3.50;;
21014;SDS011;19207;-23.482;-46.500;2022-08-21T04:29:11;7.90;;;3.10;;
21014;SDS011;19207;-23.482;-46.500;2022-08-21T04:31:58;7.45;;;3.30;;
21014;SDS011;19207;-23.482;-46.500;2022-08-21T04:34:44;7.62;;;3.47;;
21014;SDS011;19207;-23.482;-46.500;2022-08-21T04:37:31;10.68;;;3.45;;
21014;SDS011;19207;-23.482;-46.500;2022-08-21T04:40:19;10.48;;;3.70;;
21014;SDS011;19207;-23.482;-46.500;2022-08-21T04:43:07;13.13;;;3.80;;
21014;SDS011;19207;-23.482;-46.500;2022-08-21T04:45:54;14.02;;;3.42;;
21014;SDS011;19207;-23.482;-46.500;2022-08-21T04:48:42;11.70;;;3.12;;
21014;SDS011;19207;-23.482;-46.500;2022-08-21T04:51:30;10.18;;;3.78;;
21014;SDS011;19207;-23.482;-46.500;2022-08-21T04:54:19;9.15;;;3.22;;
21014;SDS011;19207;-23.482;-46.500;2022-08-21T04:57:06;12.68;;;3.75;;
21014;SDS011;19207;-23.482;-46.500;2022-08-21T04:59:54;10.77;;;4.10;;
21014;SDS011;19207;-23.482;-46.500;2022-08-21T05:02:41;13.38;;;3.00;;
21014;SDS011;19207;-23.482;-46.500;2022-08-21T05:05:28;17.58;;;3.45;;
21014;SDS011;19207;-23.482;-46.500;2022-08-21T05:08:16;10.93;;;3.25;;
21014;SDS011;19207;-23.482;-46.500;2022-08-21T05:11:03;12.35;;;3.67;;
21014;SDS011;19207;-23.482;-46.500;2022-08-21T05:13:50;11.20;;;4.62;;
21014;SDS011;19207;-23.482;-46.500;2022-08-21T05:16:36;13.35;;;5.00;;
21014;SDS011;19207;-23.482;-46.500;2022-08-21T05:19:24;14.82;;;4.10;;
21014;SDS011;19207;-23.482;-46.500;2022-08-21T05:22:11;8.70;;;3.50;;
21014;SDS011;19207;-23.482;-46.500;2022-08-21T05:24:57;12.70;;;3.42;;
21014;SDS011;19207;-23.482;-46.500;2022-08-21T05:27:44;10.57;;;3.20;;
21014;SDS011;19207;-23.482;-46.500;2022-08-21T05:30:30;9.35;;;3.58;;
21014;SDS011;19207;-23.482;-46.500;2022-08-21T05:33:18;11.10;;;4.00;;
21014;SDS011;19207;-23.482;-46.500;2022-08-21T05:36:04;17.80;;;3.95;;
21014;SDS011;19207;-23.482;-46.500;2022-08-21T05:38:51;16.17;;;4.43;;
21014;SDS011;19207;-23.482;-46.500;2022-08-21T05:41:38;15.43;;;3.75;;
21014;SDS011;19207;-23.482;-46.500;2022-08-21T05:44:24;12.70;;;3.90;;
21014;SDS011;19207;-23.482;-46.500;2022-08-21T05:47:11;10.90;;;3.50;;
21014;SDS011;19207;-23.482;-46.500;2022-08-21T05:49:58;13.27;;;3.50;;
21014;SDS011;19207;-23.482;-46.500;2022-08-21T05:52:45;15.27;;;3.55;;
21014;SDS011;19207;-23.482;-46.500;2022-08-21T05:55:31;9.32;;;3.42;;
21014;SDS011;19207;-23.482;-46.500;2022-08-21T05:58:19;13.65;;;3.47;;
21014;SDS011;19207;-23.482;-46.500;2022-08-21T06:01:06;10.70;;;3.20;;
21014;SDS011;19207;-23.482;-46.500;2022-08-21T06:03:55;15.80;;;3.30;;
21014;SDS011;19207;-23.482;-46.500;2022-08-21T06:06:42;13.15;;;2.70;;
21014;SDS011;19207;-23.482;-46.500;2022-08-21T06:09:28;11.10;;;3.00;;
21014;SDS011;19207;-23.482;-46.500;2022-08-21T06:12:15;11.60;;;3.35;;
21014;SDS011;19207;-23.482;-46.500;2022-08-21T06:15:03;6.45;;;2.58;;
21014;SDS011;19207;-23.482;-46.500;2022-08-21T06:17:49;10.20;;;3.33;;
21014;SDS011;19207;-23.482;-46.500;2022-08-21T06:20:37;11.65;;;3.17;;
21014;SDS011;19207;-23.482;-46.500;2022-08-21T06:23:24;9.15;;;3.53;;
21014;SDS011;19207;-23.482;-46.500;2022-08-21T06:26:12;12.80;;;4.00;;
21014;SDS011;19207;-23.482;-46.500;2022-08-21T06:29:02;10.13;;;3.60;;
21014;SDS011;19207;-23.482;-46.500;2022-08-21T06:31:49;8.98;;;3.50;;
21014;SDS011;19207;-23.482;-46.500;2022-08-21T06:34:36;10.02;;;3.30;;
21014;SDS011;19207;-23.482;-46.500;2022-08-21T06:37:23;10.55;;;3.83;;
21014;SDS011;19207;-23.482;-46.500;2022-08-21T06:40:10;9.23;;;3.30;;
21014;SDS011;19207;-23.482;-46.500;2022-08-21T06:43:15;9.07;;;2.80;;
21014;SDS011;19207;-23.482;-46.500;2022-08-21T06:46:02;12.30;;;3.15;;
21014;SDS011;19207;-23.482;-46.500;2022-08-21T06:48:49;10.60;;;2.87;;
21014;SDS011;19207;-23.482;-46.500;2022-08-21T06:51:36;10.88;;;2.80;;
21014;SDS011;19207;-23.482;-46.500;2022-08-21T06:54:22;11.25;;;2.90;;
21014;SDS011;19207;-23.482;-46.500;2022-08-21T06:57:09;6.68;;;2.42;;
21014;SDS011;19207;-23.482;-46.500;2022-08-21T06:59:56;9.88;;;2.70;;
21014;SDS011;19207;-23.482;-46.500;2022-08-21T07:02:42;9.68;;;2.60;;
21014;SDS011;19207;-23.482;-46.500;2022-08-21T07:05:30;13.65;;;3.05;;
21014;SDS011;19207;-23.482;-46.500;2022-08-21T07:08:16;9.07;;;3.00;;
21014;SDS011;19207;-23.482;-46.500;2022-08-21T07:11:04;9.73;;;2.83;;
21014;SDS011;19207;-23.482;-46.500;2022-08-21T07:13:53;11.60;;;3.00;;
21014;SDS011;19207;-23.482;-46.500;2022-08-21T07:16:41;21.42;;;3.90;;
21014;SDS011;19207;-23.482;-46.500;2022-08-21T07:19:27;9.75;;;2.75;;
21014;SDS011;19207;-23.482;-46.500;2022-08-21T07:22:14;9.55;;;2.78;;
21014;SDS011;19207;-23.482;-46.500;2022-08-21T07:25:02;10.23;;;2.75;;
21014;SDS011;19207;-23.482;-46.500;2022-08-21T07:27:49;9.93;;;2.67;;
21014;SDS011;19207;-23.482;-46.500;2022-08-21T07:30:36;6.30;;;2.50;;
21014;SDS011;19207;-23.482;-46.500;2022-08-21T07:33:23;10.98;;;2.25;;
21014;SDS011;19207;-23.482;-46.500;2022-08-21T07:36:10;10.88;;;3.65;;
21014;SDS011;19207;-23.482;-46.500;2022-08-21T07:38:57;9.82;;;3.10;;
21014;SDS011;19207;-23.482;-46.500;2022-08-21T07:41:44;9.23;;;2.72;;
21014;SDS011;19207;-23.482;-46.500;2022-08-21T07:44:31;8.20;;;2.70;;
21014;SDS011;19207;-23.482;-46.500;2022-08-21T07:47:19;7.00;;;2.60;;
21014;SDS011;19207;-23.482;-46.500;2022-08-21T07:50:06;16.35;;;2.95;;
21014;SDS011;19207;-23.482;-46.500;2022-08-21T07:52:53;10.77;;;3.20;;
21014;SDS011;19207;-23.482;-46.500;2022-08-21T07:55:40;10.07;;;2.87;;
21014;SDS011;19207;-23.482;-46.500;2022-08-21T07:58:26;13.82;;;2.72;;
21014;SDS011;19207;-23.482;-46.500;2022-08-21T08:01:13;15.73;;;2.40;;
21014;SDS011;19207;-23.482;-46.500;2022-08-21T08:04:00;11.93;;;2.62;;
21014;SDS011;19207;-23.482;-46.500;2022-08-21T08:06:46;7.82;;;2.45;;
21014;SDS011;19207;-23.482;-46.500;2022-08-21T08:09:33;11.85;;;3.05;;
21014;SDS011;19207;-23.482;-46.500;2022-08-21T08:12:21;8.13;;;2.83;;
21014;SDS011;19207;-23.482;-46.500;2022-08-21T08:15:09;12.90;;;2.50;;
21014;SDS011;19207;-23.482;-46.500;2022-08-21T08:17:56;17.83;;;3.08;;
21014;SDS011;19207;-23.482;-46.500;2022-08-21T08:20:42;6.78;;;2.85;;
21014;SDS011;19207;-23.482;-46.500;2022-08-21T08:23:30;8.57;;;3.17;;
21014;SDS011;19207;-23.482;-46.500;2022-08-21T08:26:16;11.18;;;3.12;;
21014;SDS011;19207;-23.482;-46.500;2022-08-21T08:29:03;16.50;;;3.15;;
21014;SDS011;19207;-23.482;-46.500;2022-08-21T08:31:50;10.52;;;3.20;;
21014;SDS011;19207;-23.482;-46.500;2022-08-21T08:34:37;7.28;;;2.47;;
21014;SDS011;19207;-23.482;-46.500;2022-08-21T08:37:23;5.35;;;2.30;;
21014;SDS011;19207;-23.482;-46.500;2022-08-21T08:43:11;9.90;;;2.17;;
21014;SDS011;19207;-23.482;-46.500;2022-08-21T08:45:59;7.65;;;2.30;;
21014;SDS011;19207;-23.482;-46.500;2022-08-21T08:49:06;6.12;;;2.50;;
21014;SDS011;19207;-23.482;-46.500;2022-08-21T08:52:02;7.97;;;2.20;;
21014;SDS011;19207;-23.482;-46.500;2022-08-21T08:54:51;10.48;;;2.33;;
21014;SDS011;19207;-23.482;-46.500;2022-08-21T08:57:46;7.07;;;1.90;;
21014;SDS011;19207;-23.482;-46.500;2022-08-21T09:00:33;8.98;;;1.90;;
21014;SDS011;19207;-23.482;-46.500;2022-08-21T09:03:20;6.97;;;2.03;;
21014;SDS011;19207;-23.482;-46.500;2022-08-21T09:06:13;7.93;;;1.87;;
21014;SDS011;19207;-23.482;-46.500;2022-08-21T09:12:18;8.57;;;2.30;;
21014;SDS011;19207;-23.482;-46.500;2022-08-21T09:23:47;6.40;;;2.33;;
21014;SDS011;19207;-23.482;-46.500;2022-08-21T09:26:47;5.72;;;2.15;;
21014;SDS011;19207;-23.482;-46.500;2022-08-21T09:29:38;13.40;;;2.35;;
21014;SDS011;19207;-23.482;-46.500;2022-08-21T09:32:28;10.82;;;2.80;;
21014;SDS011;19207;-23.482;-46.500;2022-08-21T09:35:16;7.45;;;2.53;;
21014;SDS011;19207;-23.482;-46.500;2022-08-21T09:38:23;10.07;;;2.75;;
21014;SDS011;19207;-23.482;-46.500;2022-08-21T09:41:10;4.32;;;2.10;;
21014;SDS011;19207;-23.482;-46.500;2022-08-21T09:43:57;8.75;;;2.03;;
21014;SDS011;19207;-23.482;-46.500;2022-08-21T09:46:49;7.43;;;2.12;;
21014;SDS011;19207;-23.482;-46.500;2022-08-21T09:49:37;14.35;;;2.58;;
21014;SDS011;19207;-23.482;-46.500;2022-08-21T09:52:25;10.48;;;2.33;;
21014;SDS011;19207;-23.482;-46.500;2022-08-21T09:55:16;5.72;;;2.20;;
21014;SDS011;19207;-23.482;-46.500;2022-08-21T09:58:32;12.85;;;2.40;;
21014;SDS011;19207;-23.482;-46.500;2022-08-21T10:01:20;4.80;;;1.98;;
21014;SDS011;19207;-23.482;-46.500;2022-08-21T10:04:07;5.07;;;1.75;;
21014;SDS011;19207;-23.482;-46.500;2022-08-21T10:06:54;11.25;;;2.10;;
21014;SDS011;19207;-23.482;-46.500;2022-08-21T10:09:59;8.13;;;2.40;;
21014;SDS011;19207;-23.482;-46.500;2022-08-21T10:18:39;12.80;;;3.50;;
21014;SDS011;19207;-23.482;-46.500;2022-08-21T10:21:30;9.55;;;3.00;;
21014;SDS011;19207;-23.482;-46.500;2022-08-21T10:30:30;9.32;;;2.80;;
21014;SDS011;19207;-23.482;-46.500;2022-08-21T10:42:08;7.65;;;2.55;;
21014;SDS011;19207;-23.482;-46.500;2022-08-21T10:48:04;9.18;;;3.37;;
21014;SDS011;19207;-23.482;-46.500;2022-08-21T10:50:53;10.15;;;3.35;;
21014;SDS011;19207;-23.482;-46.500;2022-08-21T10:53:55;6.05;;;3.12;;
21014;SDS011;19207;-23.482;-46.500;2022-08-21T10:56:42;7.55;;;2.72;;
21014;SDS011;19207;-23.482;-46.500;2022-08-21T11:02:20;4.57;;;2.37;;
21014;SDS011;19207;-23.482;-46.500;2022-08-21T11:05:19;9.82;;;2.80;;
21014;SDS011;19207;-23.482;-46.500;2022-08-21T11:11:05;8.60;;;2.67;;
21014;SDS011;19207;-23.482;-46.500;2022-08-21T11:16:45;4.82;;;1.98;;
21014;SDS011;19207;-23.482;-46.500;2022-08-21T11:22:40;7.00;;;1.90;;
21014;SDS011;19207;-23.482;-46.500;2022-08-21T11:28:26;8.63;;;3.20;;
21014;SDS011;19207;-23.482;-46.500;2022-08-21T11:34:21;10.18;;;2.35;;
21014;SDS011;19207;-23.482;-46.500;2022-08-21T11:40:24;4.57;;;1.40;;
21014;SDS011;19207;-23.482;-46.500;2022-08-21T11:46:04;8.40;;;1.87;;
21014;SDS011;19207;-23.482;-46.500;2022-08-21T11:52:12;5.55;;;1.35;;
21014;SDS011;19207;-23.482;-46.500;2022-08-21T12:00:41;6.40;;;1.50;;
21014;SDS011;19207;-23.482;-46.500;2022-08-21T12:03:30;7.35;;;1.50;;
21014;SDS011;19207;-23.482;-46.500;2022-08-21T12:06:27;12.23;;;1.70;;
21014;SDS011;19207;-23.482;-46.500;2022-08-21T12:09:31;9.13;;;1.90;;
21014;SDS011;19207;-23.482;-46.500;2022-08-21T12:18:20;9.85;;;1.50;;
21014;SDS011;19207;-23.482;-46.500;2022-08-21T12:21:19;6.65;;;1.60;;
21014;SDS011;19207;-23.482;-46.500;2022-08-21T12:27:01;3.65;;;1.65;;
21014;SDS011;19207;-23.482;-46.500;2022-08-21T12:29:59;5.15;;;2.00;;
21014;SDS011;19207;-23.482;-46.500;2022-08-21T12:32:54;6.60;;;1.95;;
21014;SDS011;19207;-23.482;-46.500;2022-08-21T12:35:41;5.50;;;1.70;;
21014;SDS011;19207;-23.482;-46.500;2022-08-21T12:38:32;8.20;;;2.12;;
21014;SDS011;19207;-23.482;-46.500;2022-08-21T12:41:20;9.77;;;1.70;;
21014;SDS011;19207;-23.482;-46.500;2022-08-21T12:44:08;6.30;;;1.87;;
21014;SDS011;19207;-23.482;-46.500;2022-08-21T12:46:57;5.82;;;1.65;;
21014;SDS011;19207;-23.482;-46.500;2022-08-21T12:49:51;4.82;;;2.17;;
21014;SDS011;19207;-23.482;-46.500;2022-08-21T12:52:41;7.65;;;1.70;;
21014;SDS011;19207;-23.482;-46.500;2022-08-21T12:55:32;6.03;;;1.52;;
21014;SDS011;19207;-23.482;-46.500;2022-08-21T12:58:23;3.20;;;1.65;;
21014;SDS011;19207;-23.482;-46.500;2022-08-21T13:01:17;3.53;;;1.42;;
21014;SDS011;19207;-23.482;-46.500;2022-08-21T13:04:09;4.72;;;1.40;;
21014;SDS011;19207;-23.482;-46.500;2022-08-21T13:06:57;1.70;;;1.20;;
21014;SDS011;19207;-23.482;-46.500;2022-08-21T13:09:55;8.13;;;1.73;;
21014;SDS011;19207;-23.482;-46.500;2022-08-21T13:12:43;2.92;;;1.50;;
21014;SDS011;19207;-23.482;-46.500;2022-08-21T13:15:31;4.03;;;1.40;;
21014;SDS011;19207;-23.482;-46.500;2022-08-21T13:18:22;9.75;;;1.75;;
21014;SDS011;19207;-23.482;-46.500;2022-08-21T13:21:13;3.08;;;1.50;;
21014;SDS011;19207;-23.482;-46.500;2022-08-21T13:24:08;9.45;;;1.92;;
21014;SDS011;19207;-23.482;-46.500;2022-08-21T13:26:56;4.50;;;1.83;;
21014;SDS011;19207;-23.482;-46.500;2022-08-21T13:29:42;5.70;;;2.20;;
21014;SDS011;19207;-23.482;-46.500;2022-08-21T13:32:29;5.87;;;1.80;;
21014;SDS011;19207;-23.482;-46.500;2022-08-21T13:35:18;3.00;;;1.60;;
21014;SDS011;19207;-23.482;-46.500;2022-08-21T13:38:05;3.70;;;2.00;;
21014;SDS011;19207;-23.482;-46.500;2022-08-21T13:40:54;5.20;;;1.75;;
21014;SDS011;19207;-23.482;-46.500;2022-08-21T13:43:44;8.15;;;1.90;;
21014;SDS011;19207;-23.482;-46.500;2022-08-21T13:46:35;3.20;;;1.55;;
21014;SDS011;19207;-23.482;-46.500;2022-08-21T13:49:44;6.55;;;2.00;;
21014;SDS011;19207;-23.482;-46.500;2022-08-21T13:52:29;4.97;;;2.05;;
21014;SDS011;19207;-23.482;-46.500;2022-08-21T13:55:16;7.47;;;1.83;;
21014;SDS011;19207;-23.482;-46.500;2022-08-21T13:58:03;5.28;;;1.80;;
21014;SDS011;19207;-23.482;-46.500;2022-08-21T14:00:50;4.30;;;2.00;;
21014;SDS011;19207;-23.482;-46.500;2022-08-21T14:03:38;3.20;;;1.90;;
21014;SDS011;19207;-23.482;-46.500;2022-08-21T14:06:28;5.43;;;2.00;;
21014;SDS011;19207;-23.482;-46.500;2022-08-21T14:12:15;5.65;;;2.10;;
21014;SDS011;19207;-23.482;-46.500;2022-08-21T14:15:02;6.30;;;2.28;;
21014;SDS011;19207;-23.482;-46.500;2022-08-21T14:17:53;6.95;;;2.05;;
21014;SDS011;19207;-23.482;-46.500;2022-08-21T14:20:39;2.05;;;1.40;;
21014;SDS011;19207;-23.482;-46.500;2022-08-21T14:23:26;8.13;;;1.90;;
21014;SDS011;19207;-23.482;-46.500;2022-08-21T14:26:12;6.47;;;2.00;;
21014;SDS011;19207;-23.482;-46.500;2022-08-21T14:29:05;5.45;;;1.30;;
21014;SDS011;19207;-23.482;-46.500;2022-08-21T14:31:54;3.55;;;1.50;;
21014;SDS011;19207;-23.482;-46.500;2022-08-21T14:34:40;5.32;;;1.60;;
21014;SDS011;19207;-23.482;-46.500;2022-08-21T14:37:27;6.82;;;1.45;;
21014;SDS011;19207;-23.482;-46.500;2022-08-21T14:40:14;5.18;;;1.37;;
21014;SDS011;19207;-23.482;-46.500;2022-08-21T14:43:02;3.80;;;1.65;;
21014;SDS011;19207;-23.482;-46.500;2022-08-21T14:45:49;2.30;;;1.23;;
21014;SDS011;19207;-23.482;-46.500;2022-08-21T14:48:35;3.40;;;1.65;;
21014;SDS011;19207;-23.482;-46.500;2022-08-21T14:51:22;4.57;;;1.77;;
21014;SDS011;19207;-23.482;-46.500;2022-08-21T14:54:09;5.05;;;1.80;;
21014;SDS011;19207;-23.482;-46.500;2022-08-21T14:56:56;3.85;;;1.73;;
21014;SDS011;19207;-23.482;-46.500;2022-08-21T14:59:43;4.40;;;1.80;;
21014;SDS011;19207;-23.482;-46.500;2022-08-21T15:02:29;5.43;;;1.70;;
21014;SDS011;19207;-23.482;-46.500;2022-08-21T15:05:16;13.10;;;2.40;;
21014;SDS011;19207;-23.482;-46.500;2022-08-21T15:08:03;8.95;;;2.20;;
21014;SDS011;19207;-23.482;-46.500;2022-08-21T15:10:50;8.93;;;1.58;;
21014;SDS011;19207;-23.482;-46.500;2022-08-21T15:13:38;6.72;;;1.70;;
21014;SDS011;19207;-23.482;-46.500;2022-08-21T15:16:26;11.10;;;1.60;;
21014;SDS011;19207;-23.482;-46.500;2022-08-21T15:19:13;5.87;;;1.50;;
21014;SDS011;19207;-23.482;-46.500;2022-08-21T15:21:59;4.78;;;1.75;;
21014;SDS011;19207;-23.482;-46.500;2022-08-21T15:24:45;5.60;;;1.52;;
21014;SDS011;19207;-23.482;-46.500;2022-08-21T15:27:32;6.95;;;1.55;;
21014;SDS011;19207;-23.482;-46.500;2022-08-21T15:30:20;6.95;;;1.70;;
21014;SDS011;19207;-23.482;-46.500;2022-08-21T15:33:07;5.15;;;1.50;;
21014;SDS011;19207;-23.482;-46.500;2022-08-21T15:35:53;3.30;;;1.37;;
21014;SDS011;19207;-23.482;-46.500;2022-08-21T15:38:40;2.97;;;1.70;;
21014;SDS011;19207;-23.482;-46.500;2022-08-21T15:41:26;3.75;;;1.50;;
21014;SDS011;19207;-23.482;-46.500;2022-08-21T15:44:14;6.80;;;1.60;;
21014;SDS011;19207;-23.482;-46.500;2022-08-21T15:47:01;6.00;;;1.45;;
21014;SDS011;19207;-23.482;-46.500;2022-08-21T15:49:47;5.75;;;1.60;;
21014;SDS011;19207;-23.482;-46.500;2022-08-21T15:52:34;2.33;;;1.40;;
21014;SDS011;19207;-23.482;-46.500;2022-08-21T15:55:21;3.28;;;1.48;;
21014;SDS011;19207;-23.482;-46.500;2022-08-21T15:58:11;5.62;;;1.50;;
21014;SDS011;19207;-23.482;-46.500;2022-08-21T16:00:58;5.20;;;1.50;;
21014;SDS011;19207;-23.482;-46.500;2022-08-21T16:03:47;4.28;;;1.52;;
21014;SDS011;19207;-23.482;-46.500;2022-08-21T16:06:34;2.53;;;1.50;;
21014;SDS011;19207;-23.482;-46.500;2022-08-21T16:09:20;4.20;;;1.60;;
21014;SDS011;19207;-23.482;-46.500;2022-08-21T16:12:07;6.00;;;1.80;;
21014;SDS011;19207;-23.482;-46.500;2022-08-21T16:14:54;4.32;;;1.90;;
21014;SDS011;19207;-23.482;-46.500;2022-08-21T16:17:43;7.22;;;2.00;;
21014;SDS011;19207;-23.482;-46.500;2022-08-21T16:20:33;4.40;;;2.08;;
21014;SDS011;19207;-23.482;-46.500;2022-08-21T16:23:20;6.62;;;1.90;;
21014;SDS011;19207;-23.482;-46.500;2022-08-21T16:26:07;5.18;;;2.12;;
21014;SDS011;19207;-23.482;-46.500;2022-08-21T16:28:55;3.83;;;1.80;;
21014;SDS011;19207;-23.482;-46.500;2022-08-21T16:31:42;4.47;;;1.70;;
21014;SDS011;19207;-23.482;-46.500;2022-08-21T16:34:29;4.15;;;1.70;;
21014;SDS011;19207;-23.482;-46.500;2022-08-21T16:37:16;4.72;;;2.00;;
21014;SDS011;19207;-23.482;-46.500;2022-08-21T16:40:03;6.35;;;2.00;;
21014;SDS011;19207;-23.482;-46.500;2022-08-21T16:42:51;3.85;;;1.80;;
21014;SDS011;19207;-23.482;-46.500;2022-08-21T16:45:39;7.62;;;1.80;;
21014;SDS011;19207;-23.482;-46.500;2022-08-21T16:48:26;4.57;;;1.98;;
21014;SDS011;19207;-23.482;-46.500;2022-08-21T16:51:16;4.72;;;2.08;;
21014;SDS011;19207;-23.482;-46.500;2022-08-21T16:54:03;5.00;;;2.12;;
21014;SDS011;19207;-23.482;-46.500;2022-08-21T16:56:49;9.30;;;2.55;;
21014;SDS011;19207;-23.482;-46.500;2022-08-21T16:59:36;3.55;;;1.87;;
21014;SDS011;19207;-23.482;-46.500;2022-08-21T17:02:30;4.40;;;2.12;;
21014;SDS011;19207;-23.482;-46.500;2022-08-21T17:05:18;5.45;;;2.00;;
21014;SDS011;19207;-23.482;-46.500;2022-08-21T17:08:05;6.30;;;2.40;;
21014;SDS011;19207;-23.482;-46.500;2022-08-21T17:10:53;7.57;;;2.90;;
21014;SDS011;19207;-23.482;-46.500;2022-08-21T17:13:40;5.28;;;2.42;;
21014;SDS011;19207;-23.482;-46.500;2022-08-21T17:16:28;9.98;;;3.87;;
21014;SDS011;19207;-23.482;-46.500;2022-08-21T17:19:15;7.22;;;2.70;;
21014;SDS011;19207;-23.482;-46.500;2022-08-21T17:22:02;8.10;;;3.58;;
21014;SDS011;19207;-23.482;-46.500;2022-08-21T17:24:49;4.53;;;2.30;;
21014;SDS011;19207;-23.482;-46.500;2022-08-21T17:27:36;7.00;;;2.55;;